createdAt,value
2022-09-21T00:00:17.374Z,5.10
2022-09-21T00:03:19.696Z,5.28
2022-09-21T00:06:23.243Z,4.95
2022-09-21T00:09:25.185Z,4.85
2022-09-21T00:12:27.023Z,5.35
2022-09-21T00:15:30.072Z,5.40
2022-09-21T00:18:32.210Z,5.15
2022-09-21T00:21:34.622Z,5.35
2022-09-21T00:24:36.462Z,5.75
2022-09-21T00:27:38.953Z,5.32
2022-09-21T00:30:41.073Z,5.20
2022-09-21T00:33:43.774Z,5.25
2022-09-21T00:36:46.461Z,5.25
2022-09-21T00:39:48.873Z,5.15
2022-09-21T00:42:51.029Z,4.43
2022-09-21T00:46:02.562Z,3.58
2022-09-21T00:49:04.534Z,4.40
2022-09-21T00:52:08.505Z,4.32
2022-09-21T00:55:42.246Z,4.25
2022-09-21T00:58:48.028Z,4.43
2022-09-21T01:01:51.469Z,4.30
2022-09-21T01:08:02.352Z,4.25
2022-09-21T01:11:22.942Z,4.97
2022-09-21T01:14:56.849Z,4.82
2022-09-21T01:18:07.037Z,4.68
2022-09-21T01:21:16.177Z,5.13
2022-09-21T01:24:27.367Z,5.35
2022-09-21T01:27:38.131Z,6.15
2022-09-21T01:30:45.682Z,5.78
2022-09-21T01:33:57.846Z,5.57
2022-09-21T01:37:06.370Z,6.07
2022-09-21T01:40:21.917Z,6.25
2022-09-21T01:43:34.444Z,5.90
2022-09-21T01:46:38.180Z,6.07
2022-09-21T01:49:44.896Z,6.50
2022-09-21T01:52:53.028Z,5.95
2022-09-21T01:56:04.805Z,5.07
2022-09-21T01:59:21.868Z,5.38
2022-09-21T02:02:43.047Z,5.30
2022-09-21T02:05:45.330Z,5.00
2022-09-21T02:08:47.845Z,5.35
2022-09-21T02:11:49.523Z,4.80
2022-09-21T02:14:57.328Z,5.28
2022-09-21T02:18:21.886Z,5.22
2022-09-21T02:21:33.195Z,5.70
2022-09-21T02:24:43.353Z,4.85
2022-09-21T02:28:06.599Z,5.28
2022-09-21T02:31:23.097Z,5.20
2022-09-21T02:34:50.670Z,5.47
2022-09-21T02:38:06.217Z,5.50
2022-09-21T02:41:17.847Z,6.00
2022-09-21T02:44:29.253Z,6.03
2022-09-21T02:47:45.029Z,6.15
2022-09-21T02:50:51.809Z,5.82
2022-09-21T02:53:54.881Z,5.93
2022-09-21T02:56:58.130Z,6.63
2022-09-21T03:00:00.027Z,6.65
2022-09-21T03:03:18.619Z,6.40
2022-09-21T03:06:20.627Z,6.32
2022-09-21T03:09:24.338Z,6.85
2022-09-21T03:12:26.837Z,6.22
2022-09-21T03:15:28.496Z,5.97
2022-09-21T03:18:31.318Z,6.10
2022-09-21T03:21:32.968Z,6.53
2022-09-21T03:24:46.433Z,6.63
2022-09-21T03:27:48.090Z,5.93
2022-09-21T03:30:51.453Z,5.07
2022-09-21T03:36:55.272Z,5.05
2022-09-21T03:39:57.044Z,6.43
2022-09-21T03:42:59.109Z,6.47
2022-09-21T03:46:00.832Z,6.20
2022-09-21T03:49:05.583Z,6.22
2022-09-21T03:52:07.358Z,6.88
2022-09-21T03:55:09.816Z,6.28
2022-09-21T03:58:11.647Z,7.00
2022-09-21T04:01:13.461Z,6.93
2022-09-21T04:04:16.578Z,7.70
2022-09-21T04:07:18.899Z,6.70
2022-09-21T04:10:26.791Z,7.88
2022-09-21T04:13:28.594Z,7.13
2022-09-21T04:16:30.246Z,7.07
2022-09-21T04:19:32.024Z,8.50
2022-09-21T04:22:33.691Z,7.72
2022-09-21T04:25:36.094Z,8.18
2022-09-21T04:28:38.080Z,8.02
2022-09-21T04:31:40.188Z,8.00
2022-09-21T04:34:42.207Z,8.27
2022-09-21T04:37:43.958Z,8.10
2022-09-21T04:40:46.167Z,7.75
2022-09-21T04:43:49.544Z,8.02
2022-09-21T04:49:53.517Z,7.50
2022-09-21T04:52:55.503Z,7.57
2022-09-21T04:55:57.235Z,7.43
2022-09-21T04:58:58.975Z,8.38
2022-09-21T05:02:00.690Z,8.60
2022-09-21T05:05:02.491Z,8.02
2022-09-21T05:08:04.603Z,8.52
2022-09-21T05:11:13.942Z,7.38
2022-09-21T05:14:15.643Z,8.25
2022-09-21T05:17:17.533Z,7.78
2022-09-21T05:20:19.214Z,7.45
2022-09-21T05:23:21.147Z,7.13
2022-09-21T05:26:23.116Z,7.40
2022-09-21T05:29:25.259Z,8.02
2022-09-21T05:32:39.158Z,6.88
2022-09-21T05:35:43.667Z,7.50
2022-09-21T05:38:45.955Z,7.43
2022-09-21T05:41:48.135Z,7.88
2022-09-21T05:44:50.791Z,7.60
2022-09-21T05:48:15.381Z,8.38
2022-09-21T05:52:01.640Z,7.90
2022-09-21T05:55:21.719Z,6.72
2022-09-21T05:58:42.248Z,7.90
2022-09-21T06:02:05.534Z,7.13
2022-09-21T06:05:15.349Z,7.57
2022-09-21T06:08:17.240Z,8.63
2022-09-21T06:11:19.157Z,7.88
2022-09-21T06:14:34.307Z,8.18
2022-09-21T06:17:36.383Z,8.57
2022-09-21T06:20:38.536Z,8.00
2022-09-21T06:23:43.872Z,8.80
2022-09-21T06:26:45.676Z,10.77
2022-09-21T06:29:47.457Z,12.02
2022-09-21T06:32:49.568Z,10.18
2022-09-21T06:35:56.394Z,10.45
2022-09-21T06:38:58.529Z,10.30
2022-09-21T06:42:00.324Z,10.35
2022-09-21T06:45:03.520Z,9.23
2022-09-21T06:48:06.825Z,10.68
2022-09-21T06:51:10.002Z,9.85
2022-09-21T06:54:11.687Z,9.55
2022-09-21T06:57:13.672Z,9.32
2022-09-21T07:00:16.108Z,9.77
2022-09-21T07:03:27.197Z,9.70
2022-09-21T07:06:30.082Z,10.07
2022-09-21T07:12:53.846Z,13.43
2022-09-21T07:15:55.540Z,12.10
2022-09-21T07:19:10.254Z,11.27
2022-09-21T07:22:12.443Z,13.80
2022-09-21T07:25:14.569Z,33.05
2022-09-21T07:28:16.620Z,19.38
2022-09-21T07:31:18.701Z,17.05
2022-09-21T07:34:20.624Z,12.15
2022-09-21T07:37:27.422Z,16.30
2022-09-21T07:40:29.985Z,12.50
2022-09-21T07:43:32.156Z,14.10
2022-09-21T07:46:33.912Z,13.23
2022-09-21T07:49:35.630Z,14.20
2022-09-21T07:52:37.295Z,17.90
2022-09-21T07:55:39.149Z,18.60
2022-09-21T07:58:59.929Z,17.55
2022-09-21T08:02:02.021Z,19.42
2022-09-21T08:05:05.458Z,21.17
2022-09-21T08:11:30.281Z,19.73
2022-09-21T08:14:35.120Z,18.67
2022-09-21T08:18:29.544Z,17.58
2022-09-21T08:21:32.418Z,16.85
2022-09-21T08:24:35.098Z,17.70
2022-09-21T08:27:37.658Z,18.27
2022-09-21T08:30:43.369Z,18.23
2022-09-21T08:33:45.817Z,18.63
2022-09-21T08:36:51.761Z,13.65
2022-09-21T08:43:59.852Z,17.65
2022-09-21T08:50:53.246Z,16.33
2022-09-21T08:54:32.879Z,15.90
2022-09-21T08:57:47.005Z,15.90
2022-09-21T09:00:58.040Z,16.08
2022-09-21T09:04:34.305Z,13.88
2022-09-21T09:08:31.504Z,14.05
2022-09-21T09:11:48.287Z,14.55
2022-09-21T09:15:25.530Z,14.43
2022-09-21T09:18:47.802Z,16.90
2022-09-21T09:22:48.910Z,16.05
2022-09-21T09:26:25.955Z,13.75
2022-09-21T09:29:59.398Z,12.90
2022-09-21T09:33:24.459Z,12.73
2022-09-21T09:36:56.884Z,8.55
2022-09-21T09:39:59.377Z,9.32
2022-09-21T09:43:36.974Z,8.60
2022-09-21T09:46:52.014Z,8.20
2022-09-21T09:50:19.357Z,8.90
2022-09-21T09:53:24.266Z,8.48
2022-09-21T09:56:26.835Z,7.15
2022-09-21T09:59:54.381Z,6.87
2022-09-21T10:03:00.904Z,7.05
2022-09-21T10:06:02.603Z,10.80
2022-09-21T10:09:28.137Z,9.68
2022-09-21T10:12:31.198Z,9.18
2022-09-21T10:15:33.719Z,7.70
2022-09-21T10:18:40.199Z,3.53
2022-09-21T10:21:51.879Z,3.08
2022-09-21T10:24:56.295Z,3.50
2022-09-21T10:27:59.140Z,4.13
2022-09-21T10:31:38.612Z,5.18
2022-09-21T10:34:43.363Z,4.38
2022-09-21T10:37:54.434Z,3.28
2022-09-21T10:40:56.279Z,4.32
2022-09-21T10:43:58.437Z,4.43
2022-09-21T10:47:18.223Z,5.30
2022-09-21T10:50:37.648Z,4.82
2022-09-21T10:53:39.431Z,4.25
2022-09-21T10:56:57.098Z,4.70
2022-09-21T10:59:59.811Z,4.85
2022-09-21T11:03:23.919Z,3.90
2022-09-21T11:06:52.473Z,4.25
2022-09-21T11:10:25.504Z,3.53
2022-09-21T11:13:35.700Z,3.45
2022-09-21T11:16:47.763Z,3.10
2022-09-21T11:20:09.830Z,2.53
2022-09-21T11:23:26.638Z,2.05
2022-09-21T11:26:37.808Z,2.40
2022-09-21T11:30:18.631Z,2.47
2022-09-21T11:33:20.318Z,2.58
2022-09-21T11:36:27.513Z,2.20
2022-09-21T11:39:57.475Z,2.05
2022-09-21T11:43:29.313Z,2.08
2022-09-21T11:46:52.066Z,2.40
2022-09-21T11:50:30.723Z,2.65
2022-09-21T11:53:52.063Z,2.60
2022-09-21T11:57:20.374Z,2.25
2022-09-21T12:00:25.007Z,2.42
2022-09-21T12:03:54.190Z,1.70
2022-09-21T12:07:10.063Z,2.08
2022-09-21T12:10:22.962Z,1.85
2022-09-21T12:13:50.652Z,1.48
2022-09-21T12:17:28.516Z,2.00
2022-09-21T12:20:50.491Z,2.13
2022-09-21T12:23:54.154Z,2.10
2022-09-21T12:27:01.259Z,2.13
2022-09-21T12:30:19.068Z,2.10
2022-09-21T12:33:37.485Z,2.20
2022-09-21T12:36:50.668Z,2.30
2022-09-21T12:40:09.871Z,2.10
2022-09-21T12:43:27.075Z,2.53
2022-09-21T12:46:40.687Z,2.70
2022-09-21T12:56:09.693Z,2.78
2022-09-21T12:59:41.614Z,2.42
2022-09-21T13:02:53.791Z,2.10
2022-09-21T13:06:37.020Z,2.63
2022-09-21T13:09:45.073Z,2.75
2022-09-21T13:12:53.150Z,2.75
2022-09-21T13:15:56.513Z,1.92
2022-09-21T13:19:13.313Z,1.88
2022-09-21T13:22:26.605Z,2.33
2022-09-21T13:25:30.707Z,2.05
2022-09-21T13:29:00.406Z,1.75
2022-09-21T13:32:46.387Z,1.88
2022-09-21T13:35:48.096Z,2.10
2022-09-21T13:38:52.648Z,2.30
2022-09-21T13:42:04.886Z,2.17
2022-09-21T13:45:16.176Z,1.90
2022-09-21T13:48:26.170Z,2.00
2022-09-21T13:51:33.177Z,1.90
2022-09-21T13:54:39.180Z,1.52
2022-09-21T13:57:49.907Z,2.03
2022-09-21T14:01:01.658Z,1.55
2022-09-21T14:04:17.969Z,1.77
2022-09-21T14:07:20.591Z,1.52
2022-09-21T14:10:23.473Z,1.90
2022-09-21T14:13:43.927Z,2.60
2022-09-21T14:16:51.881Z,2.00
2022-09-21T14:19:54.188Z,2.22
2022-09-21T14:23:22.651Z,2.05
2022-09-21T14:26:41.338Z,2.47
2022-09-21T14:29:53.133Z,1.85
2022-09-21T14:33:27.341Z,2.10
2022-09-21T14:36:42.468Z,2.33
2022-09-21T14:39:46.455Z,2.17
2022-09-21T14:42:49.307Z,2.25
2022-09-21T14:46:19.789Z,2.00
2022-09-21T14:49:28.436Z,2.30
2022-09-21T14:53:08.147Z,1.70
2022-09-21T14:56:30.134Z,2.00
2022-09-21T14:59:49.928Z,2.22
2022-09-21T15:03:19.153Z,1.85
2022-09-21T15:07:12.272Z,1.60
2022-09-21T15:10:54.522Z,1.48
2022-09-21T15:14:10.387Z,1.50
2022-09-21T15:17:27.131Z,1.92
2022-09-21T15:20:32.070Z,1.67
2022-09-21T15:23:39.195Z,1.77
2022-09-21T15:26:40.960Z,1.90
2022-09-21T15:29:47.365Z,2.05
2022-09-21T15:32:54.341Z,2.08
2022-09-21T15:36:00.135Z,2.50
2022-09-21T15:39:02.076Z,1.98
2022-09-21T15:42:09.817Z,2.58
2022-09-21T15:45:16.861Z,3.42
2022-09-21T15:48:20.656Z,7.07
2022-09-21T15:51:39.772Z,5.88
2022-09-21T15:54:49.101Z,3.40
2022-09-21T15:57:58.844Z,2.83
2022-09-21T16:01:01.830Z,3.70
2022-09-21T16:04:06.847Z,3.70
2022-09-21T16:07:33.009Z,2.83
2022-09-21T16:10:38.050Z,2.10
2022-09-21T16:14:00.047Z,2.38
2022-09-21T16:17:13.487Z,2.08
2022-09-21T16:20:23.020Z,2.10
2022-09-21T16:23:30.561Z,1.70
2022-09-21T16:26:37.642Z,1.85
2022-09-21T16:29:43.219Z,1.90
2022-09-21T16:32:47.027Z,1.67
2022-09-21T16:35:48.921Z,1.58
2022-09-21T16:38:53.503Z,1.70
2022-09-21T16:42:00.134Z,1.63
2022-09-21T16:45:11.530Z,1.70
2022-09-21T16:48:13.423Z,2.33
2022-09-21T16:51:24.702Z,2.35
2022-09-21T16:54:27.639Z,1.88
2022-09-21T16:57:29.373Z,1.90
2022-09-21T17:00:40.736Z,2.47
2022-09-21T17:03:42.914Z,4.28
2022-09-21T17:06:44.952Z,7.75
2022-09-21T17:09:47.798Z,12.70
2022-09-21T17:12:52.674Z,7.95
2022-09-21T17:15:54.618Z,6.05
2022-09-21T17:18:56.800Z,5.65
2022-09-21T17:21:59.662Z,4.68
2022-09-21T17:25:01.447Z,5.72
2022-09-21T17:28:12.472Z,13.98
2022-09-21T17:31:16.556Z,6.57
2022-09-21T17:34:22.085Z,8.40
2022-09-21T17:37:25.248Z,8.73
2022-09-21T17:40:27.756Z,10.13
2022-09-21T17:43:50.109Z,8.63
2022-09-21T17:47:01.355Z,6.55
2022-09-21T17:50:26.969Z,5.30
2022-09-21T17:53:36.784Z,5.90
2022-09-21T17:57:00.812Z,6.15
2022-09-21T18:00:17.098Z,5.30
2022-09-21T18:03:24.788Z,10.57
2022-09-21T18:06:26.966Z,9.10
2022-09-21T18:09:28.879Z,7.43
2022-09-21T18:14:51.770Z,9.52
2022-09-21T18:17:14.748Z,13.05
2022-09-21T18:20:31.767Z,11.70
2022-09-21T18:24:34.314Z,19.85
2022-09-21T18:27:36.285Z,23.10
2022-09-21T18:30:42.263Z,19.15
2022-09-21T18:34:00.074Z,22.17
2022-09-21T18:37:18.763Z,20.92
2022-09-21T18:41:03.126Z,19.77
2022-09-21T18:47:41.377Z,16.88
2022-09-21T18:50:50.473Z,15.43
2022-09-21T18:53:55.988Z,9.95
2022-09-21T18:56:58.974Z,13.10
2022-09-21T19:00:00.984Z,12.55
2022-09-21T19:03:18.182Z,11.00
2022-09-21T19:06:53.324Z,10.93
2022-09-21T19:10:02.581Z,11.25
2022-09-21T19:13:38.265Z,14.93
2022-09-21T19:17:19.063Z,11.93
2022-09-21T19:20:40.304Z,12.70
2022-09-21T19:23:59.066Z,12.25
2022-09-21T19:27:33.142Z,12.68
2022-09-21T19:30:35.381Z,15.43
2022-09-21T19:33:52.855Z,15.07
2022-09-21T19:36:57.370Z,14.85
2022-09-21T19:39:59.287Z,13.98
2022-09-21T19:43:03.784Z,14.15
2022-09-21T19:46:24.319Z,13.65
2022-09-21T19:49:38.349Z,12.13
2022-09-21T19:52:40.424Z,12.15
2022-09-21T19:56:02.757Z,11.60
2022-09-21T19:59:23.222Z,12.75
2022-09-21T20:02:32.565Z,13.45
2022-09-21T20:06:04.577Z,13.90
2022-09-21T20:09:24.784Z,14.32
2022-09-21T20:12:32.416Z,13.98
2022-09-21T20:15:46.479Z,14.15
2022-09-21T20:19:06.023Z,12.18
2022-09-21T20:22:27.728Z,11.82
2022-09-21T20:25:44.205Z,11.27
2022-09-21T20:28:46.533Z,10.73
2022-09-21T20:31:51.759Z,9.43
2022-09-21T20:34:54.015Z,9.50
2022-09-21T20:37:59.877Z,10.15
2022-09-21T20:41:05.015Z,10.82
2022-09-21T20:44:11.532Z,10.80
2022-09-21T20:47:13.360Z,10.65
2022-09-21T20:50:15.544Z,11.52
2022-09-21T21:00:36.809Z,10.98
2022-09-21T21:03:38.573Z,10.23
2022-09-21T21:06:40.334Z,11.70
2022-09-21T21:09:42.124Z,10.85
2022-09-21T21:15:45.244Z,10.57
2022-09-21T21:19:02.683Z,9.70
2022-09-21T21:22:09.194Z,9.65
2022-09-21T21:25:11.504Z,10.50
2022-09-21T21:28:13.367Z,10.27
2022-09-21T21:31:19.405Z,9.30
2022-09-21T21:34:23.299Z,9.77
2022-09-21T21:37:26.613Z,11.00
2022-09-21T21:40:28.555Z,13.85
2022-09-21T21:43:33.770Z,19.88
2022-09-21T21:46:35.644Z,23.15
2022-09-21T21:49:37.639Z,18.67
2022-09-21T21:52:40.791Z,16.67
2022-09-21T21:55:42.698Z,17.95
2022-09-21T21:58:44.600Z,15.30
2022-09-21T22:01:49.958Z,15.63
2022-09-21T22:04:52.707Z,15.90
2022-09-21T22:07:54.489Z,14.40
2022-09-21T22:10:56.419Z,17.73
2022-09-21T22:14:00.988Z,16.23
2022-09-21T22:17:02.795Z,18.05
2022-09-21T22:20:05.391Z,17.70
2022-09-21T22:23:07.320Z,14.43
2022-09-21T22:26:14.840Z,11.63
2022-09-21T22:29:17.504Z,10.80
2022-09-21T22:32:31.231Z,11.50
2022-09-21T22:38:40.448Z,10.48
2022-09-21T22:42:03.718Z,9.27
2022-09-21T22:45:09.457Z,10.38
2022-09-21T22:48:11.612Z,8.95
2022-09-21T22:51:14.154Z,9.32
2022-09-21T22:54:16.455Z,8.97
2022-09-21T22:57:18.565Z,8.40
2022-09-21T23:00:23.300Z,8.38
2022-09-21T23:03:24.984Z,9.02
2022-09-21T23:06:29.343Z,9.15
2022-09-21T23:09:31.019Z,8.88
2022-09-21T23:12:45.159Z,9.25
2022-09-21T23:15:46.968Z,8.55
2022-09-21T23:18:49.824Z,8.38
2022-09-21T23:21:52.820Z,8.82
2022-09-21T23:24:54.479Z,8.25
2022-09-21T23:28:00.447Z,9.05
2022-09-21T23:31:05.538Z,7.82
2022-09-21T23:34:16.582Z,7.80
2022-09-21T23:37:18.620Z,7.53
2022-09-21T23:40:20.292Z,7.75
2022-09-21T23:43:22.198Z,6.68
